Main page
METAR-TAF:

METAR-TAF

Airports :

Al Hoceima, Morocco

Cherif Al Idrissi Airport

latitude: 35-11N, longitude: 003-51W, elevation: 27 m

Current weather observation

The report was made 11 minutes ago, at 07:00 UTC
Wind 3 kt from the South
Temperature 7°C
Humidity 100%
Pressure 1020 hPa
Visibility 10 km or more
no clouds below 1500 m and no cumulonimbus

METAR: GMTA 180700Z 18003KT CAVOK 07/07 Q1020 NOSIG

Time: 07:11 (07:11 UTC)

Forecast

The report was made 2 hours and 11 minutes ago, at 05:00 UTC
Forecast valid from 18 at 06 UTC to 19 at 12 UTC
Wind 5 kt from the South/Southeast
Visibility 10 km or more
no clouds below 1500 m and no cumulonimbus
Becoming
from 18 at 16 UTC to 18 at 18 UTC
Broken clouds at a height of 1600 ft
Scattered clouds at a height of 3000 ft

TAF: GMTA 180500Z 1806/1912 16005KT CAVOK BECMG 1816/1818 BKN016 SCT030

Weather observations and forecasts of more than 4000 airports (METAR and TAF reports).

The available stations are represented by yellow and red dots on the map.

Hover mouse over dot to see the name of the station.

Then click to see weather observations and forecasts.

To change the map : click on the green buttons with a black cross to zoom in, on the green button with a dash to zoom out, or on the green arrows for adjacent maps.


METAR-TAF: